Helena, MT

7:34 AM MDT on September 05, 2015 (GMT -0600)
Helena 2-North | | Change Station
CLOSE
Current Station
Personal Weather Station
Location: Helena, MT
Elevation: 3825 ft
Nearby Weather Stations

Elev 3825 ft 46.62 °N, 112.04 °W | Updated 6 minutes ago

Light Rain
Light Rain
47.0 °F
Feels Like 47 °F
N
2.0
Wind Variable Wind from WSW
Gusts 17.0 mph

Today
High -- | Low -- °F
--% Chance of Precip.
Yesterday
High -- | Low -- °F
Precip. -- in
6:52 AM 7:59 PM
Waning Gibbous, 48% visible
Pressure 29.94 in
Visibility 10.0 miles
Clouds Mostly Cloudy 1700 ft
Overcast 2800 ft
Windchill 47 °F
Dew Point 45 °F
Humidity 92%
Rainfall 0.12 in
Snow Depth Not available.
UV 0 out of 12
Pollen 2.60 out of 12
Air Quality Not available.
Flu Activity Not available.
METAR KHLN 051253Z 25005KT 10SM -RA BKN017 OVC028 09/07 A2990 RMK AO2 RAE15B39 SLP136 P0004 T00890067
Pressure 29.94 in
Visibility 10.0 miles
Clouds Mostly Cloudy 1700 ft
Overcast 2800 ft
Windchill 47 °F
Dew Point 45 °F
Humidity 92%
Rainfall 0.12 in
Snow Depth Not available.
UV 0 out of 12
Pollen 2.60 out of 12
Air Quality Not available.
Flu Activity Not available.
METAR KHLN 051253Z 25005KT 10SM -RA BKN017 OVC028 09/07 A2990 RMK AO2 RAE15B39 SLP136 P0004 T00890067

10-Day Weather Forecast

×

Almanac

Astronomy

Sep. 05, 2015 Rise Set
Actual Time
Civil Twilight
Nautical Twilight
Astronomical Twilight
Moon
Length of Visible Light
Length of Day
Tomorrow will be .
, % of the Moon is Illuminated

Today's Extremes

State Highs State Lows

Community

WunderPhotos

Upload Photos

1,852,454 photos uploaded!

WunderBlogs® & News

Nearby

Air Quality

  Air Quality AQ Index Pollutant
Not available.

Snow Depth

Station Depth Elevation

Earthquake Activity

City Distance Mag. Time & Date
Minimum magnitude displayed is 2.5.

Coastal Water Temperatures

Place Temperature

Stations

Nearby Weather Stations

Station Location Temp. Windchill Dew Point Humidity Wind Precip. Elev Updated Type